createdAt,value
2022-08-26T00:00:19.627Z,100042.88
2022-08-26T00:02:47.823Z,100034.31
2022-08-26T00:05:16.321Z,100034.03
2022-08-26T00:07:44.695Z,100030.56
2022-08-26T00:10:15.126Z,100024.63
2022-08-26T00:12:43.335Z,100020.72
2022-08-26T00:15:13.824Z,100016.78
2022-08-26T00:17:42.092Z,100014.47
2022-08-26T00:20:11.625Z,100010.00
2022-08-26T00:22:39.723Z,100014.31
2022-08-26T00:25:10.263Z,100013.81
2022-08-26T00:27:40.011Z,100008.91
2022-08-26T00:30:11.414Z,99997.94
2022-08-26T00:32:39.486Z,100003.22
2022-08-26T00:35:08.729Z,100009.16
2022-08-26T00:37:36.821Z,100005.88
2022-08-26T00:40:06.268Z,100006.03
2022-08-26T00:42:34.429Z,100006.38
2022-08-26T00:45:04.447Z,100016.44
2022-08-26T00:47:45.112Z,100010.53
2022-08-26T00:50:19.738Z,100004.44
2022-08-26T00:52:48.923Z,99996.84
2022-08-26T00:55:22.228Z,99997.06
2022-08-26T00:57:51.941Z,100003.34
2022-08-26T01:00:25.738Z,100010.44
2022-08-26T01:02:53.627Z,100003.53
2022-08-26T01:05:21.983Z,100005.34
2022-08-26T01:07:50.066Z,100008.34
2022-08-26T01:10:22.220Z,100003.63
2022-08-26T01:13:04.773Z,99998.50
2022-08-26T01:15:37.181Z,100009.59
2022-08-26T01:18:07.530Z,99996.75
2022-08-26T01:20:42.583Z,100009.94
2022-08-26T01:23:13.684Z,100013.25
2022-08-26T01:25:46.703Z,100018.75
2022-08-26T01:28:18.679Z,100021.06
2022-08-26T01:30:48.230Z,100012.00
2022-08-26T01:33:20.833Z,100015.47
2022-08-26T01:35:50.148Z,100023.91
2022-08-26T01:38:21.471Z,100023.41
2022-08-26T01:40:52.009Z,100023.09
2022-08-26T01:43:27.087Z,100028.38
2022-08-26T01:45:57.152Z,100020.81
2022-08-26T01:48:29.536Z,100027.41
2022-08-26T01:50:58.022Z,100019.47
2022-08-26T01:53:28.294Z,100032.69
2022-08-26T01:56:00.556Z,100022.78
2022-08-26T01:58:36.058Z,100021.00
2022-08-26T02:01:04.963Z,100020.50
2022-08-26T02:03:34.124Z,100022.16
2022-08-26T02:06:09.412Z,100027.75
2022-08-26T02:08:43.030Z,100026.09
2022-08-26T02:11:12.193Z,100012.44
2022-08-26T02:13:44.491Z,100031.25
2022-08-26T02:16:14.009Z,100031.25
2022-08-26T02:18:45.024Z,100030.41
2022-08-26T02:21:15.318Z,100019.22
2022-08-26T02:23:45.532Z,100023.16
2022-08-26T02:26:16.496Z,100018.56
2022-08-26T02:28:51.660Z,100022.63
2022-08-26T02:31:20.287Z,100024.13
2022-08-26T02:33:48.940Z,100020.34
2022-08-26T02:36:20.975Z,100025.78
2022-08-26T02:38:50.479Z,100017.19
2022-08-26T02:41:20.279Z,100019.84
2022-08-26T02:43:51.418Z,100023.13
2022-08-26T02:46:27.913Z,100026.75
2022-08-26T02:48:58.216Z,100008.66
2022-08-26T02:51:27.064Z,100027.75
2022-08-26T02:53:57.020Z,100023.31
2022-08-26T02:56:25.843Z,100022.00
2022-08-26T02:58:55.747Z,100025.44
2022-08-26T03:01:25.907Z,100022.94
2022-08-26T03:03:54.618Z,100030.38
2022-08-26T03:06:24.389Z,100027.25
2022-08-26T03:08:53.238Z,100034.19
2022-08-26T03:11:23.729Z,100033.38
2022-08-26T03:13:53.818Z,100030.22
2022-08-26T03:16:22.027Z,100037.16
2022-08-26T03:18:52.461Z,100040.44
2022-08-26T03:21:21.780Z,100032.69
2022-08-26T03:23:49.913Z,100039.63
2022-08-26T03:26:18.321Z,100044.41
2022-08-26T03:29:05.316Z,100044.41
2022-08-26T03:31:33.507Z,100045.91
2022-08-26T03:34:01.909Z,100031.75
2022-08-26T03:36:30.063Z,100040.28
2022-08-26T03:38:58.637Z,100045.22
2022-08-26T03:41:26.744Z,100045.22
2022-08-26T03:44:00.995Z,100042.59
2022-08-26T03:46:30.088Z,100046.06
2022-08-26T03:48:58.563Z,100047.72
2022-08-26T03:51:27.544Z,100047.72
2022-08-26T03:53:56.003Z,100051.84
2022-08-26T03:56:25.316Z,100046.72
2022-08-26T03:58:54.610Z,100049.53
2022-08-26T04:01:24.572Z,100045.72
2022-08-26T04:04:01.804Z,100051.47
2022-08-26T04:06:33.964Z,100051.16
2022-08-26T04:09:05.461Z,100050.81
2022-08-26T04:11:38.295Z,100052.47
2022-08-26T04:14:08.415Z,100059.41
2022-08-26T04:16:38.953Z,100013.59
2022-08-26T04:19:07.512Z,100058.41
2022-08-26T04:21:38.309Z,100057.91
2022-08-26T04:24:11.376Z,100061.22
2022-08-26T04:26:42.860Z,100059.22
2022-08-26T04:29:14.947Z,100059.06
2022-08-26T04:31:44.536Z,100058.06
2022-08-26T04:34:14.201Z,100055.41
2022-08-26T04:36:44.134Z,100054.72
2022-08-26T04:39:16.702Z,100061.97
2022-08-26T04:41:47.747Z,100057.97
2022-08-26T04:44:17.447Z,100060.13
2022-08-26T04:46:47.037Z,100065.06
2022-08-26T04:49:15.543Z,100055.66
2022-08-26T04:51:43.942Z,100057.25
2022-08-26T04:54:12.240Z,100052.47
2022-08-26T04:56:42.468Z,100057.72
2022-08-26T04:59:17.073Z,100057.00
2022-08-26T05:01:49.697Z,100058.81
2022-08-26T05:04:19.279Z,100060.56
2022-08-26T05:06:47.788Z,100060.72
2022-08-26T05:09:18.439Z,100055.91
2022-08-26T05:11:48.435Z,100064.09
2022-08-26T05:14:20.822Z,100056.91
2022-08-26T05:16:50.333Z,100065.59
2022-08-26T05:19:19.158Z,100068.66
2022-08-26T05:21:48.533Z,100052.78
2022-08-26T05:24:17.122Z,100061.56
2022-08-26T05:26:47.258Z,100069.47
2022-08-26T05:29:16.211Z,100067.59
2022-08-26T05:31:45.018Z,100061.22
2022-08-26T05:34:14.619Z,100055.31
2022-08-26T05:36:43.328Z,100059.88
2022-08-26T05:39:11.415Z,100063.72
2022-08-26T05:41:42.329Z,100062.34
2022-08-26T05:44:13.151Z,100061.91
2022-08-26T05:46:44.819Z,100061.69
2022-08-26T05:49:17.040Z,100049.66
2022-08-26T05:51:47.642Z,100059.41
2022-08-26T05:54:21.919Z,100054.63
2022-08-26T05:56:50.791Z,100061.88
2022-08-26T05:59:24.242Z,100067.66
2022-08-26T06:01:54.740Z,100041.91
2022-08-26T06:04:27.204Z,100061.97
2022-08-26T06:06:56.512Z,100061.16
2022-08-26T06:09:25.477Z,100063.44
2022-08-26T06:11:53.663Z,100073.81
2022-08-26T06:14:21.830Z,100070.16
2022-08-26T06:16:49.935Z,100076.75
2022-08-26T06:19:18.372Z,100073.72
2022-08-26T06:21:54.104Z,100066.19
2022-08-26T06:24:39.951Z,100075.25
2022-08-26T06:27:11.398Z,100072.03
2022-08-26T06:29:39.647Z,100070.84
2022-08-26T06:32:08.811Z,100074.19
2022-08-26T06:34:37.127Z,100078.16
2022-08-26T06:37:07.276Z,100080.94
2022-08-26T06:39:35.755Z,100079.03
2022-08-26T06:42:09.222Z,100078.91
2022-08-26T06:44:40.953Z,100075.56
2022-08-26T06:47:09.260Z,100073.56
2022-08-26T06:49:37.560Z,100073.03
2022-08-26T06:52:07.403Z,100075.31
2022-08-26T06:54:37.194Z,100076.16
2022-08-26T06:57:07.581Z,100072.13
2022-08-26T06:59:35.757Z,100067.44
2022-08-26T07:02:06.151Z,100073.84
2022-08-26T07:04:36.196Z,100066.53
2022-08-26T07:07:04.467Z,100070.31
2022-08-26T07:09:35.413Z,100083.09
2022-08-26T07:12:06.859Z,100074.31
2022-08-26T07:14:38.221Z,100075.31
2022-08-26T07:17:11.011Z,100079.44
2022-08-26T07:19:41.920Z,100079.41
2022-08-26T07:22:11.061Z,100080.44
2022-08-26T07:24:42.510Z,100081.50
2022-08-26T07:27:13.681Z,100081.47
2022-08-26T07:29:43.722Z,100077.38
2022-08-26T07:32:14.413Z,100064.88
2022-08-26T07:34:43.595Z,100074.94
2022-08-26T07:37:12.372Z,100080.22
2022-08-26T07:39:43.223Z,100074.09
2022-08-26T07:42:13.339Z,100065.91
2022-08-26T07:44:42.432Z,100081.66
2022-08-26T07:47:24.860Z,100069.78
2022-08-26T07:49:54.344Z,100073.06
2022-08-26T07:52:26.236Z,100066.28
2022-08-26T07:54:56.827Z,100071.59
2022-08-26T07:57:25.031Z,100062.75
2022-08-26T07:59:53.924Z,100074.81
2022-08-26T08:02:24.139Z,100075.66
2022-08-26T08:04:53.278Z,100069.13
2022-08-26T08:07:21.637Z,100066.66
2022-08-26T08:10:11.656Z,100076.06
2022-08-26T08:12:39.900Z,100048.16
2022-08-26T08:15:09.804Z,100072.28
2022-08-26T08:17:37.998Z,100069.31
2022-08-26T08:20:07.725Z,100040.88
2022-08-26T08:22:35.652Z,100052.25
2022-08-26T08:25:08.065Z,100050.19
2022-08-26T08:27:39.444Z,100048.03
2022-08-26T08:30:10.232Z,100054.44
2022-08-26T08:32:43.630Z,100050.38
2022-08-26T08:35:14.144Z,100046.69
2022-08-26T08:37:43.856Z,100042.81
2022-08-26T08:40:18.423Z,100045.09
2022-08-26T08:45:36.629Z,100039.56
2022-08-26T08:48:09.984Z,100038.81
2022-08-26T08:50:44.745Z,100034.88
2022-08-26T08:53:17.536Z,100029.75
2022-08-26T08:55:59.404Z,100024.88
2022-08-26T08:58:40.675Z,100025.09
2022-08-26T09:01:17.869Z,100019.38
2022-08-26T09:03:57.269Z,100012.13
2022-08-26T09:06:27.635Z,100011.31
2022-08-26T09:08:57.487Z,99998.13
2022-08-26T09:11:25.780Z,100006.84
2022-08-26T09:13:56.903Z,100003.66
2022-08-26T09:16:36.910Z,100002.84
2022-08-26T09:19:14.629Z,99998.06
2022-08-26T09:21:47.324Z,100004.03
2022-08-26T09:24:22.267Z,100002.81
2022-08-26T09:26:52.634Z,99999.72
2022-08-26T09:29:25.117Z,100008.34
2022-08-26T09:31:56.656Z,99998.63
2022-08-26T09:34:26.688Z,99994.00
2022-08-26T09:36:56.212Z,99997.34
2022-08-26T09:39:34.737Z,100003.56
2022-08-26T09:42:11.815Z,99999.78
2022-08-26T09:45:03.734Z,99997.84
2022-08-26T09:47:34.205Z,100000.19
2022-08-26T09:50:12.429Z,99988.31
2022-08-26T09:52:42.847Z,100002.88
2022-08-26T09:55:14.707Z,100004.34
2022-08-26T09:57:49.720Z,100015.34
2022-08-26T10:00:31.008Z,100008.91
2022-08-26T10:03:01.018Z,100007.47
2022-08-26T10:05:33.382Z,100000.50
2022-08-26T10:08:02.232Z,100008.81
2022-08-26T10:10:34.864Z,100001.91
2022-08-26T10:13:11.005Z,100006.69
2022-08-26T10:15:50.648Z,99998.63
2022-08-26T10:18:25.232Z,99994.91
2022-08-26T10:20:59.253Z,99990.22
2022-08-26T10:23:32.510Z,99985.84
2022-08-26T10:26:09.887Z,99987.78
2022-08-26T10:28:45.115Z,99984.66
2022-08-26T10:31:27.892Z,99977.75
2022-08-26T10:34:00.494Z,99977.41
2022-08-26T10:37:14.339Z,99975.53
2022-08-26T10:39:46.178Z,99979.69
2022-08-26T10:42:21.819Z,99974.97
2022-08-26T10:44:53.444Z,99975.31
2022-08-26T10:47:35.280Z,99970.44
2022-08-26T10:50:04.724Z,99968.81
2022-08-26T10:52:52.791Z,99979.13
2022-08-26T10:55:25.657Z,99971.13
2022-08-26T10:58:04.756Z,99973.72
2022-08-26T11:00:58.141Z,99956.94
2022-08-26T11:03:38.937Z,99963.00
2022-08-26T11:06:24.892Z,99958.56
2022-08-26T11:08:54.684Z,99959.53
2022-08-26T11:11:51.531Z,99955.53
2022-08-26T11:14:53.052Z,99945.41
2022-08-26T11:17:56.716Z,99947.13
2022-08-26T11:20:39.334Z,99944.47
2022-08-26T11:23:50.495Z,99954.44
2022-08-26T11:26:43.141Z,99943.47
2022-08-26T11:29:13.531Z,99944.31
2022-08-26T11:31:59.990Z,99951.75
2022-08-26T11:34:54.200Z,99944.78
2022-08-26T11:37:32.251Z,99937.75
2022-08-26T11:40:03.901Z,99943.94
2022-08-26T11:42:37.886Z,99936.34
2022-08-26T11:45:20.088Z,99938.75
2022-08-26T11:47:49.327Z,99938.66
2022-08-26T11:50:20.747Z,99940.28
2022-08-26T11:53:07.790Z,99929.53
2022-08-26T11:55:43.110Z,99929.06
2022-08-26T11:58:13.798Z,99924.94
2022-08-26T12:00:52.529Z,99925.22
2022-08-26T12:03:25.129Z,99917.66
2022-08-26T12:05:55.197Z,99903.84
2022-08-26T12:08:31.368Z,99911.72
2022-08-26T12:11:09.802Z,99904.34
2022-08-26T12:13:39.372Z,99902.31
2022-08-26T12:16:08.298Z,99899.16
2022-08-26T12:18:38.308Z,99889.09
2022-08-26T12:21:16.181Z,99890.34
2022-08-26T12:23:49.911Z,99895.25
2022-08-26T12:26:25.502Z,99888.91
2022-08-26T12:28:57.534Z,99885.81
2022-08-26T12:31:29.726Z,99880.09
2022-08-26T12:33:59.640Z,99881.16
2022-08-26T12:36:32.801Z,99869.97
2022-08-26T12:39:10.079Z,99879.03
2022-08-26T12:41:45.133Z,99877.97
2022-08-26T12:44:35.373Z,99865.09
2022-08-26T12:47:08.447Z,99880.59
2022-08-26T12:49:37.682Z,99876.22
2022-08-26T12:52:06.805Z,99872.78
2022-08-26T12:54:56.867Z,99869.34
2022-08-26T12:57:29.608Z,99865.47
2022-08-26T13:00:28.320Z,99873.81
2022-08-26T13:02:57.717Z,99871.31
2022-08-26T13:05:29.341Z,99861.41
2022-08-26T13:08:15.032Z,99867.09
2022-08-26T13:10:46.832Z,99868.22
2022-08-26T13:13:15.510Z,99860.09
2022-08-26T13:15:45.116Z,99864.25
2022-08-26T13:18:13.260Z,99863.28
2022-08-26T13:20:44.323Z,99862.25
2022-08-26T13:23:13.675Z,99856.41
2022-08-26T13:25:46.637Z,99861.03
2022-08-26T13:28:15.092Z,99860.34
2022-08-26T13:30:47.218Z,99859.38
2022-08-26T13:33:18.423Z,99859.47
2022-08-26T13:35:46.785Z,99838.34
2022-08-26T13:38:18.572Z,99858.75
2022-08-26T13:41:04.151Z,99846.88
2022-08-26T13:43:32.602Z,99849.38
2022-08-26T13:46:02.070Z,99851.50
2022-08-26T13:48:31.357Z,99849.31
2022-08-26T13:50:59.705Z,99844.69
2022-08-26T13:53:29.689Z,99849.53
2022-08-26T13:55:58.988Z,99852.47
2022-08-26T13:58:29.307Z,99851.66
2022-08-26T14:00:59.094Z,99844.28
2022-08-26T14:03:27.627Z,99852.31
2022-08-26T14:05:56.164Z,99846.88
2022-08-26T14:08:25.399Z,99848.94
2022-08-26T14:10:53.972Z,99859.34
2022-08-26T14:13:22.091Z,99847.34
2022-08-26T14:15:52.860Z,99852.66
2022-08-26T14:18:24.234Z,99852.97
2022-08-26T14:20:55.501Z,99851.84
2022-08-26T14:23:23.953Z,99843.72
2022-08-26T14:25:52.892Z,99841.66
2022-08-26T14:28:21.244Z,99844.63
2022-08-26T14:30:55.399Z,99838.50
2022-08-26T14:33:27.899Z,99838.06
2022-08-26T14:36:16.935Z,99843.38
2022-08-26T14:38:45.469Z,99840.81
2022-08-26T14:41:15.585Z,99846.94
2022-08-26T14:43:48.954Z,99842.69
2022-08-26T14:46:19.580Z,99846.44
2022-08-26T14:48:48.070Z,99842.94
2022-08-26T14:51:16.095Z,99841.50
2022-08-26T14:54:01.264Z,99843.50
2022-08-26T14:56:31.730Z,99852.84
2022-08-26T14:58:59.979Z,99840.00
2022-08-26T15:01:31.082Z,99844.13
2022-08-26T15:03:59.733Z,99849.69
2022-08-26T15:06:28.516Z,99848.81
2022-08-26T15:08:56.724Z,99850.81
2022-08-26T15:11:25.977Z,99830.69
2022-08-26T15:13:54.402Z,99851.31
2022-08-26T15:16:22.892Z,99849.06
2022-08-26T15:18:53.250Z,99856.91
2022-08-26T15:21:22.638Z,99851.91
2022-08-26T15:23:54.085Z,99848.56
2022-08-26T15:26:23.894Z,99851.25
2022-08-26T15:28:52.822Z,99854.38
2022-08-26T15:31:26.681Z,99855.31
2022-08-26T15:33:59.545Z,99860.00
2022-08-26T15:36:29.510Z,99863.75
2022-08-26T15:38:59.453Z,99859.66
2022-08-26T15:41:28.486Z,99855.81
2022-08-26T15:43:56.966Z,99831.72
2022-08-26T15:46:25.798Z,99850.22
2022-08-26T15:48:55.646Z,99858.59
2022-08-26T15:51:26.149Z,99852.81
2022-08-26T15:53:58.023Z,99851.28
2022-08-26T15:56:27.305Z,99852.47
2022-08-26T15:58:57.027Z,99852.34
2022-08-26T16:01:27.387Z,99841.88
2022-08-26T16:03:57.654Z,99849.66
2022-08-26T16:06:28.661Z,99857.19
2022-08-26T16:08:58.202Z,99847.53
2022-08-26T16:11:27.359Z,99842.91
2022-08-26T16:13:55.600Z,99859.06
2022-08-26T16:16:25.001Z,99848.94
2022-08-26T16:18:53.660Z,99857.22
2022-08-26T16:21:25.657Z,99856.03
2022-08-26T16:23:54.142Z,99857.66
2022-08-26T16:26:25.534Z,99858.00
2022-08-26T16:28:53.951Z,99860.53
2022-08-26T16:31:22.777Z,99867.63
2022-08-26T16:33:51.544Z,99866.59
2022-08-26T16:36:20.021Z,99867.97
2022-08-26T16:38:53.588Z,99877.03
2022-08-26T16:41:22.665Z,99866.34
2022-08-26T16:43:51.312Z,99870.31
2022-08-26T16:46:22.302Z,99871.28
2022-08-26T16:48:50.427Z,99874.72
2022-08-26T16:51:23.060Z,99865.22
2022-08-26T16:53:53.657Z,99873.38
2022-08-26T16:56:23.878Z,99872.19
2022-08-26T16:59:01.736Z,99876.81
2022-08-26T17:01:30.768Z,99880.56
2022-08-26T17:03:58.884Z,99884.38
2022-08-26T17:06:26.973Z,99890.44
2022-08-26T17:08:56.596Z,99877.00
2022-08-26T17:11:24.726Z,99885.09
2022-08-26T17:13:53.681Z,99884.75
2022-08-26T17:16:26.624Z,99883.22
2022-08-26T17:18:56.326Z,99880.78
2022-08-26T17:21:25.238Z,99884.16
2022-08-26T17:23:54.269Z,99886.72
2022-08-26T17:26:23.925Z,99881.06
2022-08-26T17:28:52.491Z,99891.16
2022-08-26T17:31:21.679Z,99886.06
2022-08-26T17:33:53.415Z,99892.06
2022-08-26T17:36:28.111Z,99894.38
2022-08-26T17:38:58.142Z,99889.09
2022-08-26T17:41:28.390Z,99891.00
2022-08-26T17:43:57.261Z,99900.03
2022-08-26T17:46:25.887Z,99897.22
2022-08-26T17:48:54.289Z,99893.78
2022-08-26T17:51:23.588Z,99898.28
2022-08-26T17:53:51.808Z,99904.88
2022-08-26T17:56:24.058Z,99898.75
2022-08-26T17:58:55.141Z,99907.78
2022-08-26T18:01:27.229Z,99912.06
2022-08-26T18:04:00.333Z,99912.09
2022-08-26T18:06:30.468Z,99898.84
2022-08-26T18:08:58.602Z,99923.00
2022-08-26T18:11:27.462Z,99918.06
2022-08-26T18:13:57.897Z,99920.75
2022-08-26T18:16:26.388Z,99924.66
2022-08-26T18:18:55.210Z,99918.94
2022-08-26T18:21:28.215Z,99920.56
2022-08-26T18:23:56.886Z,99917.91
2022-08-26T18:26:28.570Z,99933.88
2022-08-26T18:28:58.650Z,99921.81
2022-08-26T18:31:27.758Z,99926.09
2022-08-26T18:33:56.529Z,99922.19
2022-08-26T18:36:27.433Z,99924.03
2022-08-26T18:38:56.531Z,99919.38
2022-08-26T18:41:28.889Z,99914.63
2022-08-26T18:43:59.402Z,99919.75
2022-08-26T18:46:29.033Z,99915.25
2022-08-26T18:48:58.125Z,99928.13
2022-08-26T18:51:29.722Z,99925.50
2022-08-26T18:53:58.764Z,99930.38
2022-08-26T18:56:27.036Z,99930.38
2022-08-26T18:58:55.498Z,99937.47
2022-08-26T19:01:27.584Z,99943.41
2022-08-26T19:03:56.599Z,99948.69
2022-08-26T19:06:26.747Z,99946.84
2022-08-26T19:08:55.817Z,99936.81
2022-08-26T19:11:31.556Z,99947.81
2022-08-26T19:14:01.438Z,99953.94
2022-08-26T19:16:31.802Z,99944.91
2022-08-26T19:19:01.740Z,99952.03
2022-08-26T19:21:30.685Z,99936.81
2022-08-26T19:24:00.044Z,99949.84
2022-08-26T19:26:29.462Z,99957.59
2022-08-26T19:28:57.793Z,99959.19
2022-08-26T19:31:26.446Z,99958.72
2022-08-26T19:33:56.826Z,99960.53
2022-08-26T19:36:27.138Z,99959.56
2022-08-26T19:38:56.037Z,99952.41
2022-08-26T19:41:36.811Z,99955.44
2022-08-26T19:44:09.805Z,99958.56
2022-08-26T19:49:13.762Z,99958.56
2022-08-26T19:51:41.913Z,99963.59
2022-08-26T19:54:10.327Z,99964.44
2022-08-26T19:56:38.627Z,99961.38
2022-08-26T19:59:06.788Z,99966.22
2022-08-26T20:01:34.844Z,99964.75
2022-08-26T20:04:04.326Z,99971.03
2022-08-26T20:06:34.373Z,99960.59
2022-08-26T20:09:02.451Z,99979.47
2022-08-26T20:11:31.223Z,99948.94
2022-08-26T20:14:00.638Z,99973.66
2022-08-26T20:16:28.859Z,99965.53
2022-08-26T20:19:14.037Z,99970.56
2022-08-26T20:21:44.186Z,99962.22
2022-08-26T20:24:15.627Z,99965.75
2022-08-26T20:26:45.257Z,99960.97
2022-08-26T20:29:15.086Z,99974.19
2022-08-26T20:31:45.132Z,99981.28
2022-08-26T20:34:14.641Z,99985.31
2022-08-26T20:36:45.200Z,99977.84
2022-08-26T20:39:14.296Z,99985.31
2022-08-26T20:41:42.815Z,99973.66
2022-08-26T20:44:11.378Z,99979.94
2022-08-26T20:46:39.379Z,99983.63
2022-08-26T20:49:08.059Z,99984.72
2022-08-26T20:51:38.677Z,99988.75
2022-08-26T20:54:08.364Z,99985.22
2022-08-26T20:56:37.771Z,99992.47
2022-08-26T20:59:08.244Z,99990.25
2022-08-26T21:01:41.930Z,99989.13
2022-08-26T21:04:13.261Z,99990.78
2022-08-26T21:06:42.327Z,99991.41
2022-08-26T21:09:22.404Z,99995.34
2022-08-26T21:11:51.374Z,99981.19
2022-08-26T21:14:20.721Z,99998.34
2022-08-26T21:16:49.081Z,99998.16
2022-08-26T21:19:19.715Z,99990.91
2022-08-26T21:21:49.110Z,99998.34
2022-08-26T21:24:17.846Z,100000.34
2022-08-26T21:26:47.762Z,99994.59
2022-08-26T21:29:16.366Z,99995.31
2022-08-26T21:31:46.673Z,99992.38
2022-08-26T21:34:15.511Z,99990.09
2022-08-26T21:36:43.647Z,99988.44
2022-08-26T21:39:12.407Z,99981.88
2022-08-26T21:41:41.023Z,99990.50
2022-08-26T21:44:11.834Z,99990.81
2022-08-26T21:46:40.006Z,99986.34
2022-08-26T21:49:10.706Z,99993.19
2022-08-26T21:51:41.603Z,99993.59
2022-08-26T21:54:11.573Z,99997.97
2022-08-26T21:56:44.335Z,99995.88
2022-08-26T21:59:15.312Z,99995.41
2022-08-26T22:01:43.429Z,99992.88
2022-08-26T22:04:12.087Z,99998.88
2022-08-26T22:06:45.059Z,99999.63
2022-08-26T22:09:14.470Z,100004.03
2022-08-26T22:11:43.193Z,100001.38
2022-08-26T22:14:12.360Z,99997.44
2022-08-26T22:16:42.062Z,99996.53
2022-08-26T22:19:20.188Z,100000.06
2022-08-26T22:21:50.300Z,100008.22
2022-08-26T22:24:19.029Z,100003.41
2022-08-26T22:26:48.142Z,99998.66
2022-08-26T22:29:16.831Z,99990.47
2022-08-26T22:31:46.899Z,99990.38
2022-08-26T22:34:17.595Z,99991.19
2022-08-26T22:36:47.662Z,99986.94
2022-08-26T22:39:17.877Z,99985.69
2022-08-26T22:41:48.734Z,99989.97
2022-08-26T22:44:17.856Z,99983.41
2022-08-26T22:46:49.368Z,99986.03
2022-08-26T22:49:17.964Z,99979.44
2022-08-26T22:51:46.648Z,99986.28
2022-08-26T22:54:15.553Z,99984.16
2022-08-26T22:56:44.365Z,99985.00
2022-08-26T22:59:13.129Z,99988.06
2022-08-26T23:01:44.806Z,99985.97
2022-08-26T23:04:15.120Z,99987.97
2022-08-26T23:06:47.611Z,99982.19
2022-08-26T23:09:18.314Z,99981.91
2022-08-26T23:11:48.905Z,99981.59
2022-08-26T23:14:18.822Z,99979.66
2022-08-26T23:16:47.642Z,99986.41
2022-08-26T23:19:20.173Z,99983.63
2022-08-26T23:21:49.493Z,99992.50
2022-08-26T23:24:18.593Z,99983.22
2022-08-26T23:26:47.420Z,99986.50
2022-08-26T23:29:16.489Z,99977.94
2022-08-26T23:31:44.695Z,99977.94
2022-08-26T23:34:31.579Z,99986.69
2022-08-26T23:37:01.639Z,99977.31
2022-08-26T23:39:29.981Z,99986.22
2022-08-26T23:41:58.306Z,99974.69
2022-08-26T23:44:27.158Z,99984.25
2022-08-26T23:46:55.974Z,99981.13
2022-08-26T23:49:24.549Z,99977.94
2022-08-26T23:52:09.978Z,99980.63
2022-08-26T23:54:39.846Z,99978.69
2022-08-26T23:57:09.505Z,99977.38
2022-08-26T23:59:39.049Z,99975.28
